< < Back
Terminal Aerodrome Forecast


Current Version              Previous Versions:   1  2  3  4  5  6  7  8  9  

Terminal Aerodrome Forecast

869
FTUS42 KFFC 240500
TAFCSG
TAF
KCSG 240522Z 2406/2506 00000KT P6SM SKC
     FM241500 11005KT P6SM SCT050
     FM241700 20005KT P6SM SCT060
     FM250300 20004KT P6SM BKN045=



Latest METAR

848
SAUS70 KWBC 250900
MTRCSG
METAR KCSG 250851Z AUTO 24005KT 7SM SCT013 17/15 A2988 RMK AO2 SLP113
T01720150 58013


USA.gov is the U.S. government's official web portal to all federal, state and local government web resources and services.